Time;durP1;ratioP1;P1;durP2;ratioP2;P2;SDS_P1;SDS_P2;PMS_P1;PMS_P2;Temp;Humidity;BMP_temperature;BMP_pressure;BME280_temperature;BME280_humidity;BME280_pressure;Samples;Min_cycle;Max_cycle;Signal;HPM_P1;HPM_P2
2023/09/09 00:00:36;;;;;;;5.83;2.00;;;;;;;23.16;56.61;99317.09;5073964;28;20177;-88
2023/09/09 00:03:02;;;;;;;12.90;2.97;;;;;;;23.15;56.57;99310.06;5074090;28;20184;-88
2023/09/09 00:05:33;;;;;;;9.60;2.67;;;;;;;23.12;56.27;99311.22;5074029;28;20545;-87
2023/09/09 00:08:00;;;;;;;6.10;2.93;;;;;;;23.09;56.29;99310.69;5073802;28;20212;-87
2023/09/09 00:10:27;;;;;;;4.07;2.17;;;;;;;23.03;56.58;99305.97;5073718;28;20192;-88
2023/09/09 00:12:54;;;;;;;5.77;2.53;;;;;;;22.98;56.54;99302.94;5073703;28;20260;-88
2023/09/09 00:15:21;;;;;;;5.37;1.97;;;;;;;22.96;56.90;99304.88;5073844;28;20173;-88
2023/09/09 00:17:48;;;;;;;5.17;2.27;;;;;;;22.89;57.22;99298.50;5056020;28;20200;-87
2023/09/09 00:20:14;;;;;;;7.00;2.37;;;;;;;22.89;56.91;99298.50;5056487;28;20590;-88
2023/09/09 00:22:40;;;;;;;5.67;2.57;;;;;;;22.89;57.21;99293.16;5073658;28;20626;-87
2023/09/09 00:25:07;;;;;;;5.97;2.10;;;;;;;22.88;56.83;99294.13;5073687;28;20626;-87
2023/09/09 00:27:32;;;;;;;5.63;2.30;;;;;;;22.88;56.97;99286.94;5055871;28;20279;-87
2023/09/09 00:29:58;;;;;;;7.50;2.27;;;;;;;22.87;56.71;99290.63;5073806;28;20287;-88
2023/09/09 00:32:24;;;;;;;6.57;2.33;;;;;;;22.83;56.94;99289.25;5073775;28;20209;-87
2023/09/09 00:34:52;;;;;;;3.23;1.70;;;;;;;22.78;57.29;99296.06;5073089;28;20181;-87
2023/09/09 00:37:17;;;;;;;8.70;1.83;;;;;;;22.77;57.25;99294.38;5073423;28;20713;-87
2023/09/09 00:39:44;;;;;;;4.07;1.60;;;;;;;22.75;57.12;99299.03;5055627;28;20197;-87
2023/09/09 00:42:11;;;;;;;3.67;1.73;;;;;;;22.76;57.34;99300.72;5055804;28;20275;-87
2023/09/09 00:44:37;;;;;;;5.33;1.77;;;;;;;22.74;57.18;99282.19;5056651;28;20227;-88
2023/09/09 00:47:03;;;;;;;5.80;1.97;;;;;;;22.69;57.11;99294.31;5055541;28;20249;-87
2023/09/09 00:49:30;;;;;;;4.93;1.67;;;;;;;22.64;57.31;99290.25;5055676;28;20213;-87
2023/09/09 00:51:56;;;;;;;4.93;1.63;;;;;;;22.55;57.79;99290.31;5070441;28;20201;-88
2023/09/09 00:54:22;;;;;;;5.30;2.00;;;;;;;22.49;58.42;99293.56;5052926;28;20169;-88
2023/09/09 00:56:50;;;;;;;4.73;1.73;;;;;;;22.46;58.97;99292.03;5064242;28;20203;-87
2023/09/09 00:59:16;;;;;;;3.23;1.67;;;;;;;22.39;59.32;99282.13;5073219;28;20173;-87
2023/09/09 01:01:41;;;;;;;4.43;1.47;;;;;;;22.38;59.75;99291.16;5073624;28;20196;-88
2023/09/09 01:04:08;;;;;;;4.93;2.07;;;;;;;22.37;59.97;99287.63;5055526;28;20184;-88
2023/09/09 01:06:36;;;;;;;6.27;2.33;;;;;;;22.35;59.63;99284.25;5055511;28;20267;-88
2023/09/09 01:09:06;;;;;;;5.40;1.77;;;;;;;22.39;59.87;99284.81;5055053;28;20221;-87
2023/09/09 01:11:32;;;;;;;5.57;1.90;;;;;;;22.32;59.72;99279.22;5073235;28;20181;-87
2023/09/09 01:13:59;;;;;;;5.13;1.63;;;;;;;22.27;59.73;99276.19;5055126;28;20294;-88
2023/09/09 01:16:25;;;;;;;4.67;2.57;;;;;;;22.27;60.18;99276.19;5072823;28;20614;-87
2023/09/09 01:18:53;;;;;;;4.73;1.87;;;;;;;22.24;60.49;99272.97;5055747;28;20172;-88
2023/09/09 01:21:23;;;;;;;4.50;1.90;;;;;;;22.17;60.69;99291.41;5072831;28;20598;-88
2023/09/09 01:23:50;;;;;;;3.80;2.00;;;;;;;22.09;60.95;99280.63;5073041;28;20181;-87
2023/09/09 01:26:16;;;;;;;6.20;1.90;;;;;;;22.08;61.14;99286.97;5073007;28;20237;-87
2023/09/09 01:28:42;;;;;;;2.70;1.50;;;;;;;22.07;60.90;99285.28;5073030;28;20287;-88
2023/09/09 01:31:08;;;;;;;6.73;1.67;;;;;;;22.06;61.27;99277.44;5072883;28;20256;-87
2023/09/09 01:33:35;;;;;;;6.07;1.90;;;;;;;22.03;61.40;99279.41;5072762;28;20177;-87
2023/09/09 01:36:02;;;;;;;3.93;1.67;;;;;;;21.99;61.66;99275.34;5054852;28;20188;-87
2023/09/09 01:38:32;;;;;;;7.60;2.23;;;;;;;21.97;61.38;99273.81;5072665;28;20595;-87
2023/09/09 01:40:57;;;;;;;4.20;1.73;;;;;;;21.96;61.58;99272.97;5072842;28;20195;-87
2023/09/09 01:43:23;;;;;;;9.30;2.90;;;;;;;21.94;61.67;99277.63;5072775;28;20591;-88
2023/09/09 01:45:49;;;;;;;6.67;2.30;;;;;;;21.96;61.53;99277.47;5072765;28;20246;-87
2023/09/09 01:48:14;;;;;;;4.07;1.97;;;;;;;21.91;61.57;99275.25;5055050;28;20201;-87
2023/09/09 01:50:39;;;;;;;5.30;1.83;;;;;;;21.87;61.85;99273.03;5055065;28;20554;-87
2023/09/09 01:53:05;;;;;;;3.53;1.70;;;;;;;21.84;61.78;99273.31;5055045;28;20187;-87
2023/09/09 01:55:30;;;;;;;6.73;2.60;;;;;;;21.79;62.33;99276.41;5072952;28;20197;-87
2023/09/09 01:57:55;;;;;;;4.73;1.70;;;;;;;21.80;62.45;99266.59;5072426;28;20611;-87
2023/09/09 02:00:22;;;;;;;5.03;1.73;;;;;;;21.83;62.32;99266.28;5072567;28;20574;-87
2023/09/09 02:02:49;;;;;;;4.77;2.03;;;;;;;21.80;62.50;99262.06;5073140;28;20235;-87
2023/09/09 02:05:15;;;;;;;8.27;2.40;;;;;;;21.78;62.35;99261.38;5055006;28;20184;-87
2023/09/09 02:07:41;;;;;;;7.03;2.20;;;;;;;21.73;62.68;99265.47;5076175;28;20242;-87
2023/09/09 02:10:08;;;;;;;4.87;1.70;;;;;;;21.77;62.51;99264.22;5076170;28;20687;-87
2023/09/09 02:12:35;;;;;;;6.67;1.90;;;;;;;21.76;62.60;99263.38;5075876;28;20189;-87
2023/09/09 02:15:02;;;;;;;11.83;2.33;;;;;;;21.68;62.86;99262.41;5076033;28;20177;-87
2023/09/09 02:17:29;;;;;;;7.00;2.00;;;;;;;21.69;62.98;99266.78;5076175;28;20513;-88
2023/09/09 02:19:56;;;;;;;5.33;2.17;;;;;;;21.66;63.00;99254.56;5076348;28;20169;-87
2023/09/09 02:22:23;;;;;;;4.33;1.70;;;;;;;21.64;63.28;99264.56;5076030;28;20191;-87
2023/09/09 02:24:56;;;;;;;5.20;2.00;;;;;;;21.62;62.91;99263.03;5059230;28;20177;-87
2023/09/09 02:27:22;;;;;;;6.07;1.63;;;;;;;21.59;63.19;99257.97;5075830;28;20180;-87
2023/09/09 02:29:49;;;;;;;4.73;2.10;;;;;;;21.57;63.35;99254.59;5076083;28;20193;-87
2023/09/09 02:32:17;;;;;;;4.43;1.67;;;;;;;21.58;63.24;99248.28;5058246;28;20185;-87
2023/09/09 02:34:44;;;;;;;3.27;1.60;;;;;;;21.60;63.40;99244.47;5075622;28;20196;-87
2023/09/09 02:37:17;;;;;;;6.17;2.13;;;;;;;21.63;63.02;99246.88;5076024;28;20239;-87
2023/09/09 02:39:51;;;;;;;5.87;1.87;;;;;;;21.62;63.01;99253.16;5075805;28;20640;-87
2023/09/09 02:42:19;;;;;;;5.57;1.57;;;;;;;21.61;62.78;99251.50;5075228;28;20188;-87
2023/09/09 02:44:47;;;;;;;5.30;2.20;;;;;;;21.58;62.66;99251.81;5075893;28;20635;-87
2023/09/09 02:47:13;;;;;;;6.80;1.40;;;;;;;21.56;62.55;99258.28;5075887;28;20638;-87
2023/09/09 02:49:41;;;;;;;7.97;1.63;;;;;;;21.53;62.79;99248.75;5075527;28;20200;-87
2023/09/09 02:52:08;;;;;;;3.20;1.80;;;;;;;21.55;62.46;99253.91;5057624;28;20557;-87
2023/09/09 02:54:36;;;;;;;4.03;1.70;;;;;;;21.56;62.59;99252.94;5075645;28;20181;-87
2023/09/09 02:57:03;;;;;;;5.00;1.57;;;;;;;21.55;62.04;99251.25;5075022;28;20188;-87
2023/09/09 02:59:32;;;;;;;4.40;1.50;;;;;;;21.49;62.21;99257.19;5075396;28;20173;-87
2023/09/09 03:02:00;;;;;;;2.70;1.60;;;;;;;21.47;62.25;99254.66;5058043;28;20184;-87
2023/09/09 03:04:27;;;;;;;4.77;1.90;;;;;;;21.46;62.56;99245.00;5057263;28;20557;-87
2023/09/09 03:06:52;;;;;;;5.90;2.13;;;;;;;21.44;62.46;99244.28;5075613;28;20231;-87
2023/09/09 03:09:20;;;;;;;5.93;1.77;;;;;;;21.39;62.67;99244.72;5075669;28;20200;-87
2023/09/09 03:11:47;;;;;;;7.27;1.70;;;;;;;21.37;62.42;99241.38;5057704;28;20288;-87
2023/09/09 03:14:14;;;;;;;4.67;2.17;;;;;;;21.39;62.33;99242.06;5074996;28;20185;-87
2023/09/09 03:16:41;;;;;;;3.43;1.80;;;;;;;21.38;62.28;99242.22;5056458;28;20238;-87
2023/09/09 03:19:06;;;;;;;4.90;1.63;;;;;;;21.37;62.16;99233.38;5056916;28;20195;-87
2023/09/09 03:21:33;;;;;;;3.60;1.60;;;;;;;21.35;62.27;99234.50;5075246;28;20514;-87
2023/09/09 03:23:58;;;;;;;4.03;1.83;;;;;;;21.37;61.84;99244.03;5075211;28;20219;-87
2023/09/09 03:26:23;;;;;;;3.20;1.57;;;;;;;21.36;62.12;99242.34;5075131;28;20268;-87
2023/09/09 03:28:50;;;;;;;5.00;1.70;;;;;;;21.34;61.98;99238.13;5074783;28;20193;-87
2023/09/09 03:31:16;;;;;;;6.97;2.00;;;;;;;21.34;61.98;99244.31;5074520;28;20211;-87
2023/09/09 03:33:41;;;;;;;5.10;1.80;;;;;;;21.33;62.31;99239.16;5074598;28;20181;-87
2023/09/09 03:36:08;;;;;;;6.23;1.73;;;;;;;21.31;62.09;99243.75;5057239;28;20181;-88
2023/09/09 03:38:35;;;;;;;3.87;1.83;;;;;;;21.31;62.07;99244.59;5074423;28;20208;-87
2023/09/09 03:41:06;;;;;;;14.03;3.10;;;;;;;21.27;62.41;99242.38;5074410;28;20208;-87
2023/09/09 03:43:34;;;;;;;3.73;1.80;;;;;;;21.22;62.75;99245.50;5075098;28;20169;-87
2023/09/09 03:46:01;;;;;;;7.17;1.80;;;;;;;21.19;62.80;99242.25;5056853;28;20206;-87
2023/09/09 03:48:28;;;;;;;5.13;2.23;;;;;;;21.07;63.20;99236.25;5074104;28;20278;-87
2023/09/09 03:50:59;;;;;;;5.90;2.43;;;;;;;21.03;63.61;99245.50;5057638;28;20187;-86
2023/09/09 03:53:27;;;;;;;6.90;2.47;;;;;;;21.00;63.58;99243.13;5074089;28;20254;-87
2023/09/09 03:55:53;;;;;;;7.30;2.60;;;;;;;21.00;63.84;99244.94;5074575;28;20173;-87
2023/09/09 03:58:18;;;;;;;9.10;2.57;;;;;;;20.98;63.69;99244.25;5073823;28;20517;-87
2023/09/09 04:00:46;;;;;;;4.83;2.10;;;;;;;20.97;63.83;99242.56;5073805;28;20208;-87
2023/09/09 04:03:14;;;;;;;5.20;2.33;;;;;;;20.89;64.31;99247.75;5074082;28;20639;-87
2023/09/09 04:05:40;;;;;;;5.93;2.20;;;;;;;20.86;64.29;99246.22;5056418;28;20279;-87
2023/09/09 04:08:09;;;;;;;7.00;2.73;;;;;;;20.86;64.29;99245.41;5074055;28;20255;-86
2023/09/09 04:10:35;;;;;;;8.07;2.40;;;;;;;20.82;64.45;99247.50;5073765;28;20186;-87
2023/09/09 04:13:02;;;;;;;4.97;2.23;;;;;;;20.77;64.71;99255.06;5073769;28;20172;-87
2023/09/09 04:15:29;;;;;;;6.57;3.00;;;;;;;20.73;64.69;99245.66;5044625;28;20193;-87
2023/09/09 04:17:55;;;;;;;6.63;2.37;;;;;;;20.75;64.57;99257.06;5036652;28;20177;-87
2023/09/09 04:20:22;;;;;;;4.73;2.33;;;;;;;20.74;65.10;99260.69;5066972;28;20219;-87
2023/09/09 04:22:47;;;;;;;6.43;1.97;;;;;;;20.80;64.62;99262.78;5055881;28;20619;-87
2023/09/09 04:25:14;;;;;;;5.30;2.30;;;;;;;20.81;64.52;99256.47;5056718;28;20231;-87
2023/09/09 04:27:41;;;;;;;6.03;2.27;;;;;;;20.81;64.65;99256.47;5073449;28;20202;-87
2023/09/09 04:30:07;;;;;;;5.90;2.40;;;;;;;20.82;64.52;99253.66;5055787;28;20563;-87
2023/09/09 04:32:34;;;;;;;5.37;2.53;;;;;;;20.90;64.47;99257.44;5073308;28;20187;-87
2023/09/09 04:35:01;;;;;;;3.63;1.80;;;;;;;20.88;64.28;99254.09;5073414;28;20642;-87
2023/09/09 04:37:27;;;;;;;5.87;1.93;;;;;;;20.94;64.13;99257.00;5055702;28;20646;-87
2023/09/09 04:39:54;;;;;;;6.93;2.57;;;;;;;20.82;64.60;99248.34;5073357;28;20256;-87
2023/09/09 04:42:21;;;;;;;7.00;2.47;;;;;;;20.80;65.32;99246.81;5073397;28;20189;-87
2023/09/09 04:44:48;;;;;;;4.80;2.77;;;;;;;20.92;65.12;99258.97;5055297;28;20238;-87
2023/09/09 04:47:14;;;;;;;5.20;2.30;;;;;;;20.91;65.70;99256.47;5055784;28;20193;-87
2023/09/09 04:49:41;;;;;;;4.57;1.80;;;;;;;20.94;65.99;99257.00;5055611;28;20255;-87
2023/09/09 04:52:07;;;;;;;4.60;2.40;;;;;;;21.04;66.07;99257.81;5073144;28;20242;-87
2023/09/09 04:54:34;;;;;;;5.90;2.33;;;;;;;21.18;65.73;99256.56;5055566;28;20184;-87
2023/09/09 04:57:04;;;;;;;3.63;1.97;;;;;;;21.34;65.59;99249.66;5073372;28;20196;-87
2023/09/09 04:59:30;;;;;;;6.07;2.40;;;;;;;21.34;65.42;99249.66;5073967;28;20522;-87
2023/09/09 05:01:57;;;;;;;6.40;2.23;;;;;;;21.40;65.90;99241.06;5073730;28;20180;-87
2023/09/09 05:04:23;;;;;;;9.03;2.80;;;;;;;21.52;65.29;99247.03;5037646;28;20182;-87
2023/09/09 05:06:53;;;;;;;5.27;2.60;;;;;;;21.70;64.99;99255.09;5035635;28;20178;-87
2023/09/09 05:09:20;;;;;;;6.60;2.10;;;;;;;21.79;64.75;99249.75;5035737;28;20197;-87
2023/09/09 05:11:45;;;;;;;8.57;2.57;;;;;;;22.03;64.40;99251.88;5054831;28;20225;-87
2023/09/09 05:14:12;;;;;;;4.10;2.40;;;;;;;22.19;63.92;99249.38;5055238;28;20208;-87
2023/09/09 05:16:39;;;;;;;6.40;2.20;;;;;;;22.22;63.84;99245.56;5056481;28;20177;-87
2023/09/09 05:19:04;;;;;;;6.33;2.43;;;;;;;22.22;63.86;99251.72;5073238;28;20177;-87
2023/09/09 05:21:31;;;;;;;7.23;2.10;;;;;;;22.30;63.63;99251.81;5073201;28;20184;-87
2023/09/09 05:23:56;;;;;;;5.57;2.10;;;;;;;22.40;63.60;99257.09;5073128;28;20274;-88
2023/09/09 05:26:23;;;;;;;10.53;2.10;;;;;;;22.60;63.04;99243.44;5055335;28;20200;-87
2023/09/09 05:28:48;;;;;;;3.60;1.77;;;;;;;22.76;62.65;99252.59;5055184;28;20211;-87
2023/09/09 05:31:15;;;;;;;5.33;2.07;;;;;;;22.75;62.89;99257.09;5055384;28;20196;-88
2023/09/09 05:33:41;;;;;;;8.80;2.50;;;;;;;22.96;62.01;99257.59;5056287;28;20184;-88
2023/09/09 05:36:06;;;;;;;3.93;2.20;;;;;;;23.08;61.33;99266.22;5072386;28;20189;-87
2023/09/09 05:38:32;;;;;;;6.60;2.50;;;;;;;23.17;61.21;99266.13;5054932;28;20312;-87
2023/09/09 05:40:57;;;;;;;6.90;1.80;;;;;;;23.23;60.97;99265.50;5074471;28;20612;-87
2023/09/09 05:43:24;;;;;;;4.97;2.20;;;;;;;23.35;60.11;99263.38;5059223;28;20209;-87
2023/09/09 05:45:50;;;;;;;5.53;2.27;;;;;;;23.31;60.31;99264.72;5076533;28;20184;-88
2023/09/09 05:48:17;;;;;;;2.93;1.50;;;;;;;23.43;59.43;99260.78;5077236;28;20179;-88
2023/09/09 05:50:44;;;;;;;3.30;1.67;;;;;;;23.61;58.65;99263.41;5076885;28;20192;-88
2023/09/09 05:53:10;;;;;;;5.90;1.77;;;;;;;23.81;58.45;99271.03;5077529;28;20545;-88
2023/09/09 05:55:37;;;;;;;4.93;1.83;;;;;;;24.02;57.00;99265.25;5058971;28;20200;-87
2023/09/09 05:58:04;;;;;;;3.70;1.53;;;;;;;24.21;56.43;99262.31;5058678;28;20185;-87
2023/09/09 06:00:31;;;;;;;5.97;1.40;;;;;;;24.38;55.72;99260.50;5076460;28;20626;-87
2023/09/09 06:02:56;;;;;;;3.30;1.47;;;;;;;24.54;54.44;99257.84;5058557;28;20250;-88
2023/09/09 06:05:23;;;;;;;3.23;1.43;;;;;;;24.57;55.04;99260.19;5076561;28;20185;-88
2023/09/09 06:07:49;;;;;;;3.80;1.50;;;;;;;24.99;54.18;99257.38;5058421;28;20245;-88
2023/09/09 06:10:14;;;;;;;11.20;2.10;;;;;;;25.16;51.93;99258.22;5076177;28;20608;-88
2023/09/09 06:12:41;;;;;;;5.40;1.47;;;;;;;25.09;52.67;99262.56;5076346;28;20675;-87
2023/09/09 06:15:08;;;;;;;3.57;1.67;;;;;;;25.36;52.05;99267.56;5076118;28;20181;-87
2023/09/09 06:17:39;;;;;;;3.23;1.57;;;;;;;25.67;51.37;99265.81;5075791;28;20192;-88
2023/09/09 06:20:06;;;;;;;5.60;1.80;;;;;;;26.22;51.12;99268.47;5076572;28;20154;-87
2023/09/09 06:22:34;;;;;;;6.50;2.37;;;;;;;26.43;49.62;99259.75;5075802;28;20259;-87
2023/09/09 06:25:01;;;;;;;5.37;2.20;;;;;;;26.60;48.73;99266.69;5058597;28;20177;-87
2023/09/09 06:27:27;;;;;;;3.33;1.73;;;;;;;26.56;nan;99265.38;5075474;28;20284;-87
2023/09/09 06:29:53;;;;;;;4.97;2.00;;;;;;;26.61;49.44;99273.75;5075536;28;20204;-86
2023/09/09 06:32:20;;;;;;;7.23;2.10;;;;;;;26.77;48.82;99279.03;5075784;28;20176;-89
2023/09/09 06:34:45;;;;;;;6.00;2.77;;;;;;;26.76;49.74;99283.53;5058133;28;20213;-88
2023/09/09 06:37:10;;;;;;;7.50;2.60;;;;;;;27.01;48.60;99281.53;5058045;28;20239;-87
2023/09/09 06:39:37;;;;;;;4.15;2.00;;;;;;;27.47;48.62;99284.13;5075761;28;20157;-87
2023/09/09 06:42:06;;;;;;;5.25;1.90;;;;;;;27.96;46.79;99271.78;5058085;28;20195;-88
2023/09/09 06:44:33;;;;;;;8.27;2.37;;;;;;;28.27;45.36;99276.97;5057829;28;20188;-89
2023/09/09 06:46:59;;;;;;;6.68;1.77;;;;;;;28.62;45.26;99274.25;5075685;28;20292;-88
2023/09/09 06:49:25;;;;;;;5.97;2.00;;;;;;;28.94;43.76;99274.75;5075194;28;20570;-88
2023/09/09 06:51:53;;;;;;;6.28;2.35;;;;;;;29.16;43.88;99277.25;5037959;28;20198;-89
2023/09/09 06:54:18;;;;;;;5.38;2.55;;;;;;;29.27;42.75;99277.78;5057666;28;20198;-88
2023/09/09 06:56:46;;;;;;;4.15;2.13;;;;;;;29.30;43.10;99277.38;5075468;28;20306;-89
2023/09/09 06:59:13;;;;;;;8.50;2.67;;;;;;;29.29;43.54;99278.41;5075718;28;20576;-88
2023/09/09 07:01:40;;;;;;;12.38;2.88;;;;;;;29.23;42.29;99280.03;5057937;28;20558;-89
2023/09/09 07:04:05;;;;;;;9.45;2.65;;;;;;;29.27;43.81;99284.00;5057973;28;20176;-88
2023/09/09 07:06:31;;;;;;;4.03;1.98;;;;;;;29.50;42.62;99279.19;5057318;28;20188;-88
2023/09/09 07:08:57;;;;;;;4.22;1.83;;;;;;;29.83;42.03;99274.84;5075057;28;20211;-88
2023/09/09 07:11:22;;;;;;;5.15;1.98;;;;;;;30.06;40.21;99274.50;5074810;28;20187;-88
2023/09/09 07:13:49;;;;;;;4.57;2.22;;;;;;;30.36;40.34;99275.06;5075441;28;20173;-88
2023/09/09 07:16:16;;;;;;;4.68;1.83;;;;;;;30.56;37.18;99267.84;5057461;28;20622;-89
2023/09/09 07:18:42;;;;;;;4.18;1.45;;;;;;;30.65;38.97;99271.19;5075311;28;20177;-87
2023/09/09 07:21:08;;;;;;;3.80;1.50;;;;;;;30.78;37.21;99274.75;5057188;28;20184;-89
2023/09/09 07:23:35;;;;;;;5.22;1.75;;;;;;;30.69;35.81;99275.97;5075197;28;20192;-87
2023/09/09 07:26:02;;;;;;;5.50;1.50;;;;;;;30.78;35.36;99273.91;5057902;28;20177;-87
2023/09/09 07:28:29;;;;;;;4.30;1.55;;;;;;;30.92;32.82;99289.19;5057179;28;20200;-88
2023/09/09 07:31:01;;;;;;;6.57;1.77;;;;;;;30.87;31.65;99284.31;5063016;28;20196;-88
2023/09/09 07:33:28;;;;;;;5.85;1.77;;;;;;;30.69;30.06;99283.25;5055123;28;20167;-90
2023/09/09 07:35:54;;;;;;;4.18;1.38;;;;;;;30.64;31.67;99281.19;5059319;28;20677;-87
2023/09/09 07:38:19;;;;;;;3.78;1.17;;;;;;;30.75;29.60;99283.28;5074467;28;20228;-87
2023/09/09 07:40:46;;;;;;;5.80;1.70;;;;;;;30.69;28.47;99275.97;5074693;28;20181;-89
2023/09/09 07:43:14;;;;;;;2.90;1.35;;;;;;;30.57;28.48;99276.78;5074540;28;20251;-90
2023/09/09 07:45:51;;;;;;;2.47;0.98;;;;;;;30.36;27.74;99289.44;5074641;28;20181;-87
2023/09/09 07:48:18;;;;;;;3.38;1.10;;;;;;;30.41;29.01;99284.25;5074521;28;20173;-88
2023/09/09 07:50:55;;;;;;;4.28;1.27;;;;;;;30.59;27.73;99277.41;5074978;28;20185;-87
2023/09/09 07:53:21;;;;;;;2.90;1.33;;;;;;;30.51;28.99;99277.59;5057275;28;20265;-87
2023/09/09 07:55:50;;;;;;;4.82;1.35;;;;;;;30.45;27.68;99273.03;5074298;28;20177;-87
2023/09/09 07:58:18;;;;;;;3.17;1.23;;;;;;;30.57;27.58;99277.63;5074251;28;20651;-88
2023/09/09 08:00:44;;;;;;;7.15;1.70;;;;;;;30.74;25.79;99268.06;5056371;28;20591;-88
2023/09/09 08:03:11;;;;;;;3.08;1.20;;;;;;;30.64;26.24;99277.63;5073748;28;20668;-88
2023/09/09 08:05:41;;;;;;;5.05;1.17;;;;;;;30.62;27.75;99269.72;5056805;28;20269;-87
2023/09/09 08:08:07;;;;;;;3.35;1.10;;;;;;;30.65;26.20;99280.16;5074281;28;20276;-89
2023/09/09 08:10:34;;;;;;;4.25;1.25;;;;;;;30.55;25.01;99274.31;5074077;28;20185;-87
2023/09/09 08:13:00;;;;;;;4.65;1.10;;;;;;;30.37;25.84;99276.75;5056040;28;20666;-87
2023/09/09 08:15:27;;;;;;;2.13;0.95;;;;;;;30.58;26.01;99273.91;5056350;28;20618;-88
2023/09/09 08:17:53;;;;;;;3.05;1.33;;;;;;;30.75;26.78;99275.16;5073786;28;20189;-87
2023/09/09 08:20:19;;;;;;;2.80;0.85;;;;;;;30.91;27.52;99273.97;5056067;28;20194;-87
2023/09/09 08:22:46;;;;;;;2.15;0.90;;;;;;;31.15;27.21;99269.78;5073457;28;20185;-87
2023/09/09 08:25:13;;;;;;;2.42;0.90;;;;;;;31.34;25.58;99269.78;5073825;28;20192;-88
2023/09/09 08:27:39;;;;;;;3.13;0.95;;;;;;;31.28;23.87;99265.22;5055925;28;20647;-87
2023/09/09 08:30:06;;;;;;;2.17;0.80;;;;;;;31.33;23.89;99267.28;5073599;28;20201;-88
2023/09/09 08:32:34;;;;;;;2.28;0.70;;;;;;;31.47;25.31;99267.06;5073371;28;20189;-87
2023/09/09 08:35:01;;;;;;;2.40;0.80;;;;;;;31.68;22.61;99262.47;5073369;28;20180;-88
2023/09/09 08:37:26;;;;;;;2.25;0.90;;;;;;;31.65;21.91;99265.59;5073757;28;20230;-88
2023/09/09 08:39:55;;;;;;;2.40;0.70;;;;;;;31.72;22.02;99260.97;5053093;28;20227;-90
2023/09/09 08:42:46;;;;;;;1.55;0.57;;;;;;;31.82;20.92;99261.34;5052180;28;20268;-87
2023/09/09 08:45:40;;;;;;;3.42;0.80;;;;;;;31.75;21.11;99261.41;5038410;28;20232;-87
2023/09/09 08:48:07;;;;;;;2.53;0.55;;;;;;;31.71;20.80;99256.63;5050947;28;20254;-88
2023/09/09 08:50:39;;;;;;;2.45;0.90;;;;;;;31.63;20.40;99256.84;5052173;28;20182;-87
2023/09/09 08:53:06;;;;;;;2.25;0.75;;;;;;;31.55;20.48;99257.91;5052445;28;20185;-88
2023/09/09 08:55:32;;;;;;;1.85;0.80;;;;;;;31.68;20.69;99263.31;5052161;28;20177;-89
2023/09/09 08:58:00;;;;;;;1.70;0.70;;;;;;;31.48;22.44;99263.34;5052619;28;20181;-88
2023/09/09 09:00:33;;;;;;;1.35;0.68;;;;;;;31.56;22.70;99263.09;5053263;28;20174;-88
2023/09/09 09:03:01;;;;;;;2.13;0.80;;;;;;;31.59;23.49;99261.84;5053320;28;20252;-88
2023/09/09 09:05:30;;;;;;;2.17;0.75;;;;;;;31.65;22.84;99266.44;5053476;28;20174;-88
2023/09/09 09:07:58;;;;;;;4.22;0.70;;;;;;;31.93;21.34;99252.56;5052313;28;20227;-87
2023/09/09 09:10:24;;;;;;;2.22;0.70;;;;;;;32.03;21.79;99255.69;5052079;28;20206;-87
2023/09/09 09:12:50;;;;;;;3.60;0.68;;;;;;;32.13;22.09;99254.16;5051760;28;20624;-88
2023/09/09 09:15:17;;;;;;;1.75;0.50;;;;;;;32.22;21.69;99252.88;5053292;28;20184;-87
2023/09/09 09:17:43;;;;;;;1.67;0.77;;;;;;;32.16;19.36;99259.16;5053656;28;20185;-88
2023/09/09 09:20:28;;;;;;;3.70;0.52;;;;;;;32.28;19.95;99258.50;5051960;28;20254;-88
2023/09/09 09:23:03;;;;;;;15.93;1.48;;;;;;;32.12;19.32;99251.69;5051971;28;20335;-88
2023/09/09 09:25:36;;;;;;;1.95;0.60;;;;;;;32.23;19.29;99246.41;5052293;28;20184;-88
2023/09/09 09:28:03;;;;;;;1.98;0.60;;;;;;;32.42;18.08;99243.78;5052854;28;20287;-88
2023/09/09 09:30:31;;;;;;;1.13;0.50;;;;;;;32.32;18.76;99240.72;5052786;28;20206;-87
2023/09/09 09:32:58;;;;;;;2.40;0.80;;;;;;;32.52;19.17;99230.59;5052626;28;20182;-88
2023/09/09 09:35:29;;;;;;;1.77;0.50;;;;;;;32.64;19.69;99240.56;5053097;28;20189;-87
2023/09/09 09:38:06;;;;;;;1.67;0.70;;;;;;;32.60;18.06;99246.66;5056051;28;20207;-88
2023/09/09 09:40:32;;;;;;;4.00;0.75;;;;;;;32.61;17.49;99240.16;5073170;28;20562;-88
2023/09/09 09:42:59;;;;;;;6.25;0.70;;;;;;;32.58;16.71;99244.13;5072751;28;20181;-88
2023/09/09 09:45:26;;;;;;;2.78;0.50;;;;;;;32.62;18.04;99239.94;5072693;28;20242;-88
2023/09/09 09:47:54;;;;;;;3.75;0.55;;;;;;;32.39;18.23;99228.78;5055185;28;20185;-88
2023/09/09 09:50:30;;;;;;;4.78;0.77;;;;;;;32.44;17.41;99239.00;5072749;28;20205;-88
2023/09/09 09:53:03;;;;;;;1.52;0.40;;;;;;;32.63;17.91;99228.03;5055956;28;20570;-88
2023/09/09 09:55:32;;;;;;;2.50;1.00;;;;;;;32.81;17.71;99227.25;5054902;28;20185;-88
2023/09/09 09:58:02;;;;;;;1.73;0.40;;;;;;;32.85;17.81;99227.66;5056173;28;20183;-88
2023/09/09 10:00:28;;;;;;;5.18;0.75;;;;;;;32.69;16.91;99215.47;5072957;28;20220;-88
2023/09/09 10:02:59;;;;;;;1.73;0.70;;;;;;;33.00;17.87;99220.84;5073207;28;20177;-88
2023/09/09 10:05:26;;;;;;;1.73;0.60;;;;;;;33.12;18.15;99216.38;5054393;28;20188;-89
2023/09/09 10:07:53;;;;;;;3.70;0.70;;;;;;;33.20;16.95;99218.78;5054943;28;20264;-87
2023/09/09 10:10:23;;;;;;;2.75;0.65;;;;;;;33.08;18.95;99209.72;5072383;28;20207;-87
2023/09/09 10:13:18;;;;;;;1.88;0.70;;;;;;;32.83;17.06;99211.59;5054509;28;20219;-88
2023/09/09 10:15:47;;;;;;;1.48;0.40;;;;;;;32.98;16.50;99206.66;5055779;28;20236;-88
2023/09/09 10:18:14;;;;;;;1.52;0.50;;;;;;;33.01;16.81;99203.50;5072520;28;20192;-89
2023/09/09 10:20:41;;;;;;;2.05;0.70;;;;;;;33.00;16.66;99200.97;5055018;28;20601;-88
2023/09/09 10:23:08;;;;;;;2.97;0.68;;;;;;;33.05;16.28;99206.63;5054516;28;20196;-88
2023/09/09 10:25:38;;;;;;;2.38;0.60;;;;;;;33.03;16.82;99192.41;5055618;28;20188;-87
2023/09/09 10:28:05;;;;;;;1.75;0.50;;;;;;;33.33;16.36;99191.47;5058363;28;20192;-88
2023/09/09 10:30:35;;;;;;;2.60;0.63;;;;;;;33.53;15.65;99185.00;5076011;28;20201;-88
2023/09/09 10:33:06;;;;;;;1.35;0.40;;;;;;;33.18;16.21;99177.44;5075717;28;20188;-88
2023/09/09 10:35:35;;;;;;;1.42;0.55;;;;;;;33.42;17.19;99179.28;5076204;28;20157;-87
2023/09/09 10:38:04;;;;;;;1.73;0.55;;;;;;;33.56;16.76;99176.44;5075924;28;20243;-88
2023/09/09 10:40:31;;;;;;;4.28;1.02;;;;;;;33.65;16.51;99180.53;5058046;28;20181;-88
2023/09/09 10:42:58;;;;;;;4.32;0.90;;;;;;;33.55;17.34;99177.44;5076312;28;20263;-91
2023/09/09 10:45:28;;;;;;;3.25;0.80;;;;;;;33.43;16.78;99174.69;5075614;28;20267;-87
2023/09/09 10:48:06;;;;;;;1.63;0.50;;;;;;;33.55;16.49;99169.28;5075636;28;20205;-88
2023/09/09 10:50:44;;;;;;;2.33;0.70;;;;;;;33.56;16.16;99169.13;5075197;28;20273;-87
2023/09/09 10:53:27;;;;;;;2.05;0.50;;;;;;;33.44;15.99;99167.34;5058046;28;20183;-90
2023/09/09 10:56:21;;;;;;;2.28;0.70;;;;;;;33.51;16.20;99165.38;5075545;28;20181;-88
2023/09/09 10:58:50;;;;;;;5.97;0.88;;;;;;;33.64;16.46;99154.38;5057639;28;20238;-87
2023/09/09 11:01:27;;;;;;;2.75;1.02;;;;;;;33.78;16.93;99155.88;5075633;28;20185;-87
2023/09/09 11:03:54;;;;;;;3.35;0.82;;;;;;;33.95;15.91;99144.13;5056266;28;20157;-87
2023/09/09 11:06:20;;;;;;;2.35;0.68;;;;;;;34.13;16.72;99137.81;5071450;28;20201;-87
2023/09/09 11:08:47;;;;;;;1.52;0.77;;;;;;;34.28;15.79;99138.22;5074976;28;20204;-87
2023/09/09 11:11:26;;;;;;;1.58;0.60;;;;;;;34.18;15.07;99146.13;5075221;28;20187;-87
2023/09/09 11:13:54;;;;;;;2.03;0.68;;;;;;;33.31;15.29;99136.53;5075708;28;20542;-87
2023/09/09 11:16:40;;;;;;;2.75;0.80;;;;;;;33.87;16.45;99138.16;5075149;28;20242;-88
2023/09/09 11:19:10;;;;;;;1.35;0.45;;;;;;;34.15;16.00;99127.53;5058354;28;20204;-88
2023/09/09 11:21:53;;;;;;;3.45;0.75;;;;;;;34.13;16.18;99121.50;5075123;28;20176;-88
2023/09/09 11:24:20;;;;;;;1.42;0.60;;;;;;;34.38;15.93;99122.13;5057226;28;20195;-88
2023/09/09 11:26:48;;;;;;;1.85;0.52;;;;;;;33.82;16.89;99128.00;5074881;28;20634;-87
2023/09/09 11:29:15;;;;;;;2.17;0.70;;;;;;;33.83;17.03;99120.66;5074952;28;20200;-87
2023/09/09 11:31:42;;;;;;;3.63;0.73;;;;;;;34.13;16.95;99124.22;5074878;28;20181;-87
2023/09/09 11:34:07;;;;;;;0.80;0.43;;;;;;;34.30;16.20;99111.63;5075014;28;20177;-88
2023/09/09 11:36:34;;;;;;;2.28;0.60;;;;;;;34.57;15.97;99115.59;5074771;28;20642;-89